sensor_id;sensor_type;location;lat;lon;timestamp;temperature;humidity
68217;DHT22;55037;52.354;4.992;2022-12-18T00:01:31;-1.20;90.40
68217;DHT22;55037;52.354;4.992;2022-12-18T00:04:00;-1.20;90.50
68217;DHT22;55037;52.354;4.992;2022-12-18T00:06:29;-1.20;90.40
68217;DHT22;55037;52.354;4.992;2022-12-18T00:08:57;-1.20;90.50
68217;DHT22;55037;52.354;4.992;2022-12-18T00:11:28;-1.20;90.50
68217;DHT22;55037;52.354;4.992;2022-12-18T00:13:58;-1.20;90.50
68217;DHT22;55037;52.354;4.992;2022-12-18T00:16:27;-1.20;90.50
68217;DHT22;55037;52.354;4.992;2022-12-18T00:18:56;-1.20;90.50
68217;DHT22;55037;52.354;4.992;2022-12-18T00:21:24;-1.20;90.40
68217;DHT22;55037;52.354;4.992;2022-12-18T00:23:51;-1.20;90.30
68217;DHT22;55037;52.354;4.992;2022-12-18T00:26:24;-1.20;90.40
68217;DHT22;55037;52.354;4.992;2022-12-18T00:28:58;-1.30;90.10
68217;DHT22;55037;52.354;4.992;2022-12-18T00:31:26;-1.30;90.50
68217;DHT22;55037;52.354;4.992;2022-12-18T00:33:55;-1.20;90.60
68217;DHT22;55037;52.354;4.992;2022-12-18T00:36:25;-1.20;90.50
68217;DHT22;55037;52.354;4.992;2022-12-18T00:38:54;-1.20;90.50
68217;DHT22;55037;52.354;4.992;2022-12-18T00:41:22;-1.30;90.30
68217;DHT22;55037;52.354;4.992;2022-12-18T00:44:11;-1.30;90.30
68217;DHT22;55037;52.354;4.992;2022-12-18T00:46:39;-1.40;90.20
68217;DHT22;55037;52.354;4.992;2022-12-18T00:49:07;-1.40;90.40
68217;DHT22;55037;52.354;4.992;2022-12-18T00:51:35;-1.40;90.50
68217;DHT22;55037;52.354;4.992;2022-12-18T00:54:02;-1.40;90.50
68217;DHT22;55037;52.354;4.992;2022-12-18T00:56:30;-1.30;90.60
68217;DHT22;55037;52.354;4.992;2022-12-18T00:58:58;-1.30;90.50
68217;DHT22;55037;52.354;4.992;2022-12-18T01:01:25;-1.30;90.60
68217;DHT22;55037;52.354;4.992;2022-12-18T01:03:52;-1.40;90.50
68217;DHT22;55037;52.354;4.992;2022-12-18T01:06:22;-1.30;90.40
68217;DHT22;55037;52.354;4.992;2022-12-18T01:08:50;-1.50;90.30
68217;DHT22;55037;52.354;4.992;2022-12-18T01:11:19;-1.50;90.40
68217;DHT22;55037;52.354;4.992;2022-12-18T01:13:47;-1.60;90.50
68217;DHT22;55037;52.354;4.992;2022-12-18T01:16:16;-1.60;90.50
68217;DHT22;55037;52.354;4.992;2022-12-18T01:18:44;-1.70;90.20
68217;DHT22;55037;52.354;4.992;2022-12-18T01:21:14;-1.70;90.60
68217;DHT22;55037;52.354;4.992;2022-12-18T01:23:45;-1.60;90.80
68217;DHT22;55037;52.354;4.992;2022-12-18T01:26:15;-1.60;90.80
68217;DHT22;55037;52.354;4.992;2022-12-18T01:28:43;-1.60;90.80
68217;DHT22;55037;52.354;4.992;2022-12-18T01:31:19;-1.70;90.70
68217;DHT22;55037;52.354;4.992;2022-12-18T01:33:48;-1.70;90.70
68217;DHT22;55037;52.354;4.992;2022-12-18T01:36:24;-1.70;90.80
68217;DHT22;55037;52.354;4.992;2022-12-18T01:38:53;-1.70;90.90
68217;DHT22;55037;52.354;4.992;2022-12-18T01:41:24;-1.60;90.90
68217;DHT22;55037;52.354;4.992;2022-12-18T01:43:55;-1.60;90.90
68217;DHT22;55037;52.354;4.992;2022-12-18T01:46:25;-1.60;90.80
68217;DHT22;55037;52.354;4.992;2022-12-18T01:48:57;-1.50;90.90
68217;DHT22;55037;52.354;4.992;2022-12-18T01:51:28;-0.50;91.00
68217;DHT22;55037;52.354;4.992;2022-12-18T01:53:57;-1.50;90.70
68217;DHT22;55037;52.354;4.992;2022-12-18T01:56:26;-1.50;90.70
68217;DHT22;55037;52.354;4.992;2022-12-18T01:59:03;-1.50;90.70
68217;DHT22;55037;52.354;4.992;2022-12-18T02:01:32;-1.50;90.70
68217;DHT22;55037;52.354;4.992;2022-12-18T02:04:33;-1.50;90.60
68217;DHT22;55037;52.354;4.992;2022-12-18T02:12:19;-1.60;90.60
68217;DHT22;55037;52.354;4.992;2022-12-18T02:17:50;-1.70;90.40
68217;DHT22;55037;52.354;4.992;2022-12-18T02:20:31;-1.70;90.50
68217;DHT22;55037;52.354;4.992;2022-12-18T02:26:15;-1.80;90.50
68217;DHT22;55037;52.354;4.992;2022-12-18T02:28:54;-1.90;90.50
68217;DHT22;55037;52.354;4.992;2022-12-18T02:31:27;-1.90;90.70
68217;DHT22;55037;52.354;4.992;2022-12-18T02:33:56;-2.00;90.60
68217;DHT22;55037;52.354;4.992;2022-12-18T02:36:28;-1.90;90.70
68217;DHT22;55037;52.354;4.992;2022-12-18T02:38:56;-2.00;90.80
68217;DHT22;55037;52.354;4.992;2022-12-18T02:41:26;-2.00;90.90
68217;DHT22;55037;52.354;4.992;2022-12-18T02:43:57;-1.90;90.80
68217;DHT22;55037;52.354;4.992;2022-12-18T02:46:27;-2.10;90.60
68217;DHT22;55037;52.354;4.992;2022-12-18T02:49:05;-2.00;90.90
68217;DHT22;55037;52.354;4.992;2022-12-18T02:51:48;-2.00;90.90
68217;DHT22;55037;52.354;4.992;2022-12-18T02:54:51;-2.00;90.80
68217;DHT22;55037;52.354;4.992;2022-12-18T02:57:45;-2.00;90.80
68217;DHT22;55037;52.354;4.992;2022-12-18T03:05:38;-2.20;90.90
68217;DHT22;55037;52.354;4.992;2022-12-18T03:08:22;-2.20;91.10
68217;DHT22;55037;52.354;4.992;2022-12-18T03:13:32;-2.10;91.00
68217;DHT22;55037;52.354;4.992;2022-12-18T03:16:01;-2.20;90.90
68217;DHT22;55037;52.354;4.992;2022-12-18T03:18:35;-2.20;90.50
68217;DHT22;55037;52.354;4.992;2022-12-18T03:21:06;-2.20;90.90
68217;DHT22;55037;52.354;4.992;2022-12-18T03:23:40;-2.30;90.90
68217;DHT22;55037;52.354;4.992;2022-12-18T03:26:14;-2.20;91.10
68217;DHT22;55037;52.354;4.992;2022-12-18T03:28:47;-2.20;90.90
68217;DHT22;55037;52.354;4.992;2022-12-18T03:31:20;-2.30;90.90
68217;DHT22;55037;52.354;4.992;2022-12-18T03:33:56;-2.40;90.70
68217;DHT22;55037;52.354;4.992;2022-12-18T03:36:34;-2.40;90.80
68217;DHT22;55037;52.354;4.992;2022-12-18T03:39:02;-2.60;90.80
68217;DHT22;55037;52.354;4.992;2022-12-18T03:41:42;-2.60;91.00
68217;DHT22;55037;52.354;4.992;2022-12-18T03:50:17;-2.40;91.30
68217;DHT22;55037;52.354;4.992;2022-12-18T03:53:05;-2.40;91.10
68217;DHT22;55037;52.354;4.992;2022-12-18T03:55:36;-2.40;90.90
68217;DHT22;55037;52.354;4.992;2022-12-18T03:58:07;-2.50;90.70
68217;DHT22;55037;52.354;4.992;2022-12-18T04:00:50;-2.60;90.60
68217;DHT22;55037;52.354;4.992;2022-12-18T04:03:20;-2.70;90.50
68217;DHT22;55037;52.354;4.992;2022-12-18T04:05:54;-2.70;90.50
68217;DHT22;55037;52.354;4.992;2022-12-18T04:08:23;-2.90;90.30
68217;DHT22;55037;52.354;4.992;2022-12-18T04:11:01;-2.90;90.70
68217;DHT22;55037;52.354;4.992;2022-12-18T04:13:33;-2.90;90.80
68217;DHT22;55037;52.354;4.992;2022-12-18T04:16:03;-3.00;90.90
68217;DHT22;55037;52.354;4.992;2022-12-18T04:18:31;-2.90;90.50
68217;DHT22;55037;52.354;4.992;2022-12-18T04:21:00;-3.00;90.80
68217;DHT22;55037;52.354;4.992;2022-12-18T04:23:28;-3.00;90.90
68217;DHT22;55037;52.354;4.992;2022-12-18T04:25:58;-3.00;90.90
68217;DHT22;55037;52.354;4.992;2022-12-18T04:28:52;-2.90;90.50
68217;DHT22;55037;52.354;4.992;2022-12-18T04:31:21;-3.00;90.80
68217;DHT22;55037;52.354;4.992;2022-12-18T04:33:49;-3.00;90.80
68217;DHT22;55037;52.354;4.992;2022-12-18T04:36:16;-3.00;90.70
68217;DHT22;55037;52.354;4.992;2022-12-18T04:38:45;-3.00;90.80
68217;DHT22;55037;52.354;4.992;2022-12-18T04:41:15;-3.00;90.80
68217;DHT22;55037;52.354;4.992;2022-12-18T04:43:46;-3.10;90.70
68217;DHT22;55037;52.354;4.992;2022-12-18T04:46:13;-3.10;90.60
68217;DHT22;55037;52.354;4.992;2022-12-18T04:48:40;-3.10;90.30
68217;DHT22;55037;52.354;4.992;2022-12-18T04:51:07;-3.10;90.60
68217;DHT22;55037;52.354;4.992;2022-12-18T04:53:35;-3.10;90.60
68217;DHT22;55037;52.354;4.992;2022-12-18T04:56:07;-3.20;91.00
68217;DHT22;55037;52.354;4.992;2022-12-18T04:58:36;-3.10;90.60
68217;DHT22;55037;52.354;4.992;2022-12-18T05:01:05;-3.20;90.70
68217;DHT22;55037;52.354;4.992;2022-12-18T05:03:33;-3.20;90.70
68217;DHT22;55037;52.354;4.992;2022-12-18T05:06:01;-3.20;90.80
68217;DHT22;55037;52.354;4.992;2022-12-18T05:08:29;-3.20;90.80
68217;DHT22;55037;52.354;4.992;2022-12-18T05:11:07;-3.20;90.80
68217;DHT22;55037;52.354;4.992;2022-12-18T05:13:36;-3.10;90.80
68217;DHT22;55037;52.354;4.992;2022-12-18T05:16:05;-3.20;90.70
68217;DHT22;55037;52.354;4.992;2022-12-18T05:18:34;-3.20;90.70
68217;DHT22;55037;52.354;4.992;2022-12-18T05:21:02;-3.20;90.70
68217;DHT22;55037;52.354;4.992;2022-12-18T05:23:29;-3.20;90.70
68217;DHT22;55037;52.354;4.992;2022-12-18T05:26:01;-3.20;90.60
68217;DHT22;55037;52.354;4.992;2022-12-18T05:28:31;-3.20;90.30
68217;DHT22;55037;52.354;4.992;2022-12-18T05:31:00;-3.30;90.60
68217;DHT22;55037;52.354;4.992;2022-12-18T05:33:31;-3.30;90.60
68217;DHT22;55037;52.354;4.992;2022-12-18T05:36:00;-3.30;90.60
68217;DHT22;55037;52.354;4.992;2022-12-18T05:38:28;-3.30;90.60
68217;DHT22;55037;52.354;4.992;2022-12-18T05:40:56;-3.40;90.60
68217;DHT22;55037;52.354;4.992;2022-12-18T05:43:25;-3.40;90.60
68217;DHT22;55037;52.354;4.992;2022-12-18T05:45:52;-3.40;90.60
68217;DHT22;55037;52.354;4.992;2022-12-18T05:48:20;-3.40;90.60
68217;DHT22;55037;52.354;4.992;2022-12-18T05:50:49;-3.30;90.60
68217;DHT22;55037;52.354;4.992;2022-12-18T05:53:19;-3.40;90.60
68217;DHT22;55037;52.354;4.992;2022-12-18T05:55:47;-3.40;90.60
68217;DHT22;55037;52.354;4.992;2022-12-18T05:58:14;-3.40;90.50
68217;DHT22;55037;52.354;4.992;2022-12-18T06:00:45;-3.40;90.40
68217;DHT22;55037;52.354;4.992;2022-12-18T06:03:13;-3.50;90.30
68217;DHT22;55037;52.354;4.992;2022-12-18T06:05:43;-3.50;90.30
68217;DHT22;55037;52.354;4.992;2022-12-18T06:08:12;-3.60;90.20
68217;DHT22;55037;52.354;4.992;2022-12-18T06:10:40;-3.60;90.20
68217;DHT22;55037;52.354;4.992;2022-12-18T06:13:08;-3.70;90.30
68217;DHT22;55037;52.354;4.992;2022-12-18T06:15:38;-3.70;90.30
68217;DHT22;55037;52.354;4.992;2022-12-18T06:18:05;-3.60;90.30
68217;DHT22;55037;52.354;4.992;2022-12-18T06:20:33;-3.30;90.30
68217;DHT22;55037;52.354;4.992;2022-12-18T06:23:00;-3.60;90.20
68217;DHT22;55037;52.354;4.992;2022-12-18T06:25:28;-3.70;90.20
68217;DHT22;55037;52.354;4.992;2022-12-18T06:27:55;-3.70;90.20
68217;DHT22;55037;52.354;4.992;2022-12-18T06:30:23;-3.60;90.10
68217;DHT22;55037;52.354;4.992;2022-12-18T06:32:50;-3.60;90.00
68217;DHT22;55037;52.354;4.992;2022-12-18T06:35:23;-3.70;90.00
68217;DHT22;55037;52.354;4.992;2022-12-18T06:37:50;-3.80;90.00
68217;DHT22;55037;52.354;4.992;2022-12-18T06:40:18;-3.80;90.00
68217;DHT22;55037;52.354;4.992;2022-12-18T06:42:45;-3.70;89.90
68217;DHT22;55037;52.354;4.992;2022-12-18T06:45:13;-3.80;89.50
68217;DHT22;55037;52.354;4.992;2022-12-18T06:47:40;-3.90;89.50
68217;DHT22;55037;52.354;4.992;2022-12-18T06:50:08;-3.80;89.30
68217;DHT22;55037;52.354;4.992;2022-12-18T06:52:35;-3.80;89.50
68217;DHT22;55037;52.354;4.992;2022-12-18T06:55:04;-3.80;89.20
68217;DHT22;55037;52.354;4.992;2022-12-18T06:57:31;-3.70;89.00
68217;DHT22;55037;52.354;4.992;2022-12-18T06:59:58;-3.80;89.00
68217;DHT22;55037;52.354;4.992;2022-12-18T07:02:26;-3.80;89.20
68217;DHT22;55037;52.354;4.992;2022-12-18T07:04:53;-3.80;89.00
68217;DHT22;55037;52.354;4.992;2022-12-18T07:07:20;-3.80;89.20
68217;DHT22;55037;52.354;4.992;2022-12-18T07:09:49;-3.70;89.00
68217;DHT22;55037;52.354;4.992;2022-12-18T07:12:17;-3.80;89.20
68217;DHT22;55037;52.354;4.992;2022-12-18T07:14:44;-3.80;89.20
68217;DHT22;55037;52.354;4.992;2022-12-18T07:17:11;-3.80;89.10
68217;DHT22;55037;52.354;4.992;2022-12-18T07:19:39;-3.70;89.00
68217;DHT22;55037;52.354;4.992;2022-12-18T07:22:06;-3.80;88.70
68217;DHT22;55037;52.354;4.992;2022-12-18T07:24:33;-3.80;88.50
68217;DHT22;55037;52.354;4.992;2022-12-18T07:27:02;-3.90;88.70
68217;DHT22;55037;52.354;4.992;2022-12-18T07:29:30;-3.80;88.50
68217;DHT22;55037;52.354;4.992;2022-12-18T07:31:57;-3.80;88.40
68217;DHT22;55037;52.354;4.992;2022-12-18T07:34:25;-3.80;88.20
68217;DHT22;55037;52.354;4.992;2022-12-18T07:36:52;-3.70;88.20
68217;DHT22;55037;52.354;4.992;2022-12-18T07:39:19;-3.70;87.90
68217;DHT22;55037;52.354;4.992;2022-12-18T07:41:47;-3.60;87.80
68217;DHT22;55037;52.354;4.992;2022-12-18T07:44:34;-3.70;87.70
68217;DHT22;55037;52.354;4.992;2022-12-18T07:47:01;-3.50;87.70
68217;DHT22;55037;52.354;4.992;2022-12-18T07:49:35;-3.60;87.80
68217;DHT22;55037;52.354;4.992;2022-12-18T07:52:02;-3.50;87.60
68217;DHT22;55037;52.354;4.992;2022-12-18T07:54:29;-3.50;87.70
68217;DHT22;55037;52.354;4.992;2022-12-18T07:56:56;-3.40;87.50
68217;DHT22;55037;52.354;4.992;2022-12-18T07:59:25;-3.20;87.70
68217;DHT22;55037;52.354;4.992;2022-12-18T08:01:52;-3.30;87.50
68217;DHT22;55037;52.354;4.992;2022-12-18T08:04:19;-3.20;87.40
68217;DHT22;55037;52.354;4.992;2022-12-18T08:06:46;-3.20;87.30
68217;DHT22;55037;52.354;4.992;2022-12-18T08:09:14;-3.00;87.20
68217;DHT22;55037;52.354;4.992;2022-12-18T08:11:42;-3.10;87.40
68217;DHT22;55037;52.354;4.992;2022-12-18T08:14:09;-2.90;87.10
68217;DHT22;55037;52.354;4.992;2022-12-18T08:16:37;-2.80;86.90
68217;DHT22;55037;52.354;4.992;2022-12-18T08:19:04;-2.80;86.30
68217;DHT22;55037;52.354;4.992;2022-12-18T08:21:32;-2.80;85.90
68217;DHT22;55037;52.354;4.992;2022-12-18T08:24:00;-2.80;85.60
68217;DHT22;55037;52.354;4.992;2022-12-18T08:26:29;-2.80;85.70
68217;DHT22;55037;52.354;4.992;2022-12-18T08:28:58;-2.70;85.60
68217;DHT22;55037;52.354;4.992;2022-12-18T08:31:27;-2.60;85.50
68217;DHT22;55037;52.354;4.992;2022-12-18T08:33:55;-2.70;85.20
68217;DHT22;55037;52.354;4.992;2022-12-18T08:36:23;-2.50;85.00
68217;DHT22;55037;52.354;4.992;2022-12-18T08:38:52;-2.60;84.60
68217;DHT22;55037;52.354;4.992;2022-12-18T08:41:20;-2.40;84.60
68217;DHT22;55037;52.354;4.992;2022-12-18T08:43:47;-2.40;84.00
68217;DHT22;55037;52.354;4.992;2022-12-18T08:46:36;-2.30;84.20
68217;DHT22;55037;52.354;4.992;2022-12-18T08:49:05;-2.00;84.20
68217;DHT22;55037;52.354;4.992;2022-12-18T08:51:33;-1.70;83.30
68217;DHT22;55037;52.354;4.992;2022-12-18T08:54:01;-1.30;82.90
68217;DHT22;55037;52.354;4.992;2022-12-18T08:56:29;-0.90;81.60
68217;DHT22;55037;52.354;4.992;2022-12-18T08:58:57;-0.40;79.60
68217;DHT22;55037;52.354;4.992;2022-12-18T09:01:25;-0.10;78.80
68217;DHT22;55037;52.354;4.992;2022-12-18T09:03:52;0.30;76.30
68217;DHT22;55037;52.354;4.992;2022-12-18T09:06:21;0.50;74.60
68217;DHT22;55037;52.354;4.992;2022-12-18T09:08:49;0.40;73.80
68217;DHT22;55037;52.354;4.992;2022-12-18T09:11:24;0.30;73.70
68217;DHT22;55037;52.354;4.992;2022-12-18T09:13:53;0.30;73.90
68217;DHT22;55037;52.354;4.992;2022-12-18T09:16:22;0.10;74.40
68217;DHT22;55037;52.354;4.992;2022-12-18T09:18:58;0.10;74.50
68217;DHT22;55037;52.354;4.992;2022-12-18T09:21:32;0.00;74.20
68217;DHT22;55037;52.354;4.992;2022-12-18T09:24:03;-0.20;74.50
68217;DHT22;55037;52.354;4.992;2022-12-18T09:26:35;-0.20;75.00
68217;DHT22;55037;52.354;4.992;2022-12-18T09:29:03;-0.40;75.50
68217;DHT22;55037;52.354;4.992;2022-12-18T09:31:30;-0.40;75.70
68217;DHT22;55037;52.354;4.992;2022-12-18T09:33:57;-0.50;75.70
68217;DHT22;55037;52.354;4.992;2022-12-18T09:36:25;-0.40;76.20
68217;DHT22;55037;52.354;4.992;2022-12-18T09:38:52;-0.50;75.80
68217;DHT22;55037;52.354;4.992;2022-12-18T09:41:45;-0.40;75.70
68217;DHT22;55037;52.354;4.992;2022-12-18T09:44:18;-0.40;75.90
68217;DHT22;55037;52.354;4.992;2022-12-18T09:46:55;-0.40;76.00
68217;DHT22;55037;52.354;4.992;2022-12-18T09:49:27;-0.60;76.00
68217;DHT22;55037;52.354;4.992;2022-12-18T09:52:02;-0.80;76.10
68217;DHT22;55037;52.354;4.992;2022-12-18T09:54:36;-0.80;76.70
68217;DHT22;55037;52.354;4.992;2022-12-18T09:57:05;-0.80;77.10
68217;DHT22;55037;52.354;4.992;2022-12-18T09:59:37;-0.80;76.90
68217;DHT22;55037;52.354;4.992;2022-12-18T10:02:20;-0.70;77.90
68217;DHT22;55037;52.354;4.992;2022-12-18T10:05:12;-0.50;77.90
68217;DHT22;55037;52.354;4.992;2022-12-18T10:07:58;-0.40;77.20
68217;DHT22;55037;52.354;4.992;2022-12-18T10:10:37;-0.40;76.80
68217;DHT22;55037;52.354;4.992;2022-12-18T10:13:15;-0.50;77.50
68217;DHT22;55037;52.354;4.992;2022-12-18T10:16:33;-0.40;77.10
68217;DHT22;55037;52.354;4.992;2022-12-18T10:21:11;-0.60;77.10
68217;DHT22;55037;52.354;4.992;2022-12-18T10:26:18;-0.50;78.00
68217;DHT22;55037;52.354;4.992;2022-12-18T10:28:47;-0.40;78.10
68217;DHT22;55037;52.354;4.992;2022-12-18T10:31:21;-0.50;78.00
68217;DHT22;55037;52.354;4.992;2022-12-18T10:33:53;-0.40;77.90
68217;DHT22;55037;52.354;4.992;2022-12-18T10:36:23;-0.50;78.00
68217;DHT22;55037;52.354;4.992;2022-12-18T10:38:51;-0.40;78.40
68217;DHT22;55037;52.354;4.992;2022-12-18T10:43:48;-0.30;77.60
68217;DHT22;55037;52.354;4.992;2022-12-18T10:46:20;-0.10;78.20
68217;DHT22;55037;52.354;4.992;2022-12-18T10:51:26;0.00;77.10
68217;DHT22;55037;52.354;4.992;2022-12-18T10:56:28;0.00;77.00
68217;DHT22;55037;52.354;4.992;2022-12-18T10:59:02;0.00;77.10
68217;DHT22;55037;52.354;4.992;2022-12-18T11:01:57;0.00;77.00
68217;DHT22;55037;52.354;4.992;2022-12-18T11:04:27;-0.10;76.50
68217;DHT22;55037;52.354;4.992;2022-12-18T11:07:06;0.00;76.80
68217;DHT22;55037;52.354;4.992;2022-12-18T11:09:39;0.10;77.10
68217;DHT22;55037;52.354;4.992;2022-12-18T11:14:46;0.20;76.70
68217;DHT22;55037;52.354;4.992;2022-12-18T11:17:32;0.20;76.10
68217;DHT22;55037;52.354;4.992;2022-12-18T11:20:05;0.30;76.00
68217;DHT22;55037;52.354;4.992;2022-12-18T11:22:35;0.40;76.00
68217;DHT22;55037;52.354;4.992;2022-12-18T11:28:03;0.50;75.30
68217;DHT22;55037;52.354;4.992;2022-12-18T11:30:35;0.50;75.30
68217;DHT22;55037;52.354;4.992;2022-12-18T11:33:11;0.60;75.40
68217;DHT22;55037;52.354;4.992;2022-12-18T11:36:01;0.70;75.20
68217;DHT22;55037;52.354;4.992;2022-12-18T11:38:39;0.70;74.90
68217;DHT22;55037;52.354;4.992;2022-12-18T11:41:43;0.70;75.30
68217;DHT22;55037;52.354;4.992;2022-12-18T11:50:18;0.90;74.40
68217;DHT22;55037;52.354;4.992;2022-12-18T11:52:46;0.80;74.70
68217;DHT22;55037;52.354;4.992;2022-12-18T11:58:21;0.90;75.30
68217;DHT22;55037;52.354;4.992;2022-12-18T12:04:38;0.90;74.30
68217;DHT22;55037;52.354;4.992;2022-12-18T12:10:30;0.90;74.60
68217;DHT22;55037;52.354;4.992;2022-12-18T12:18:31;1.30;74.30
68217;DHT22;55037;52.354;4.992;2022-12-18T12:21:25;1.20;73.60
68217;DHT22;55037;52.354;4.992;2022-12-18T12:40:35;1.50;72.80
68217;DHT22;55037;52.354;4.992;2022-12-18T12:43:35;1.50;72.80
68217;DHT22;55037;52.354;4.992;2022-12-18T12:46:08;1.40;72.70
68217;DHT22;55037;52.354;4.992;2022-12-18T12:48:52;1.30;73.00
68217;DHT22;55037;52.354;4.992;2022-12-18T12:51:34;1.40;73.00
68217;DHT22;55037;52.354;4.992;2022-12-18T12:54:05;1.30;72.80
68217;DHT22;55037;52.354;4.992;2022-12-18T12:56:42;1.30;73.10
68217;DHT22;55037;52.354;4.992;2022-12-18T12:59:52;1.20;73.20
68217;DHT22;55037;52.354;4.992;2022-12-18T13:02:29;1.30;73.50
68217;DHT22;55037;52.354;4.992;2022-12-18T13:05:28;1.40;73.90
68217;DHT22;55037;52.354;4.992;2022-12-18T13:08:10;1.50;73.40
68217;DHT22;55037;52.354;4.992;2022-12-18T13:10:39;1.50;73.40
68217;DHT22;55037;52.354;4.992;2022-12-18T13:13:14;1.40;73.20
68217;DHT22;55037;52.354;4.992;2022-12-18T13:16:07;1.40;73.40
68217;DHT22;55037;52.354;4.992;2022-12-18T13:18:35;1.40;73.30
68217;DHT22;55037;52.354;4.992;2022-12-18T13:21:15;1.50;73.70
68217;DHT22;55037;52.354;4.992;2022-12-18T13:23:46;1.50;73.40
68217;DHT22;55037;52.354;4.992;2022-12-18T13:34:18;1.50;73.50
68217;DHT22;55037;52.354;4.992;2022-12-18T13:39:55;1.40;73.20
68217;DHT22;55037;52.354;4.992;2022-12-18T13:42:31;1.50;73.60
68217;DHT22;55037;52.354;4.992;2022-12-18T13:45:38;1.40;73.60
68217;DHT22;55037;52.354;4.992;2022-12-18T13:48:16;1.40;73.90
68217;DHT22;55037;52.354;4.992;2022-12-18T13:50:52;1.40;73.70
68217;DHT22;55037;52.354;4.992;2022-12-18T13:53:51;1.40;73.90
68217;DHT22;55037;52.354;4.992;2022-12-18T13:56:17;1.40;74.20
68217;DHT22;55037;52.354;4.992;2022-12-18T13:58:44;1.40;73.90
68217;DHT22;55037;52.354;4.992;2022-12-18T14:01:24;1.40;74.20
68217;DHT22;55037;52.354;4.992;2022-12-18T14:04:08;1.40;74.20
68217;DHT22;55037;52.354;4.992;2022-12-18T14:06:36;1.40;73.80
68217;DHT22;55037;52.354;4.992;2022-12-18T14:09:04;1.50;73.90
68217;DHT22;55037;52.354;4.992;2022-12-18T14:11:36;1.40;73.80
68217;DHT22;55037;52.354;4.992;2022-12-18T14:14:07;1.50;74.30
68217;DHT22;55037;52.354;4.992;2022-12-18T14:16:34;1.40;74.00
68217;DHT22;55037;52.354;4.992;2022-12-18T14:19:02;1.50;74.00
68217;DHT22;55037;52.354;4.992;2022-12-18T14:21:47;1.60;73.80
68217;DHT22;55037;52.354;4.992;2022-12-18T14:24:18;1.50;73.90
68217;DHT22;55037;52.354;4.992;2022-12-18T14:26:47;1.60;73.70
68217;DHT22;55037;52.354;4.992;2022-12-18T14:29:23;1.50;73.60
68217;DHT22;55037;52.354;4.992;2022-12-18T14:32:13;1.50;74.50
68217;DHT22;55037;52.354;4.992;2022-12-18T14:34:49;1.50;73.40
68217;DHT22;55037;52.354;4.992;2022-12-18T14:37:25;1.50;73.60
68217;DHT22;55037;52.354;4.992;2022-12-18T14:39:58;1.50;74.70
68217;DHT22;55037;52.354;4.992;2022-12-18T14:42:30;1.60;73.50
68217;DHT22;55037;52.354;4.992;2022-12-18T14:45:36;1.60;73.50
68217;DHT22;55037;52.354;4.992;2022-12-18T14:48:17;1.50;72.60
68217;DHT22;55037;52.354;4.992;2022-12-18T14:51:17;1.50;73.30
68217;DHT22;55037;52.354;4.992;2022-12-18T14:53:47;1.50;73.20
68217;DHT22;55037;52.354;4.992;2022-12-18T14:56:24;1.50;73.20
68217;DHT22;55037;52.354;4.992;2022-12-18T15:01:34;1.40;73.00
68217;DHT22;55037;52.354;4.992;2022-12-18T15:04:19;1.50;73.20
68217;DHT22;55037;52.354;4.992;2022-12-18T15:07:21;1.50;73.20
68217;DHT22;55037;52.354;4.992;2022-12-18T15:10:08;1.40;73.80
68217;DHT22;55037;52.354;4.992;2022-12-18T15:12:44;1.40;73.00
68217;DHT22;55037;52.354;4.992;2022-12-18T15:23:19;1.50;73.10
68217;DHT22;55037;52.354;4.992;2022-12-18T15:25:49;1.50;72.90
68217;DHT22;55037;52.354;4.992;2022-12-18T15:36:23;1.60;73.70
68217;DHT22;55037;52.354;4.992;2022-12-18T15:38:54;1.50;72.70
68217;DHT22;55037;52.354;4.992;2022-12-18T15:41:32;1.50;72.80
68217;DHT22;55037;52.354;4.992;2022-12-18T15:44:22;1.50;72.70
68217;DHT22;55037;52.354;4.992;2022-12-18T15:46:49;1.50;73.20
68217;DHT22;55037;52.354;4.992;2022-12-18T15:49:17;1.60;73.20
68217;DHT22;55037;52.354;4.992;2022-12-18T15:51:44;1.90;73.10
68217;DHT22;55037;52.354;4.992;2022-12-18T15:54:14;1.50;72.90
68217;DHT22;55037;52.354;4.992;2022-12-18T15:57:05;1.60;72.90
68217;DHT22;55037;52.354;4.992;2022-12-18T15:59:56;1.60;72.80
68217;DHT22;55037;52.354;4.992;2022-12-18T16:02:25;1.50;72.50
68217;DHT22;55037;52.354;4.992;2022-12-18T16:04:53;1.50;72.40
68217;DHT22;55037;52.354;4.992;2022-12-18T16:07:21;1.60;72.80
68217;DHT22;55037;52.354;4.992;2022-12-18T16:09:51;1.60;72.30
68217;DHT22;55037;52.354;4.992;2022-12-18T16:12:21;1.60;72.20
68217;DHT22;55037;52.354;4.992;2022-12-18T16:14:49;1.60;72.30
68217;DHT22;55037;52.354;4.992;2022-12-18T16:17:17;1.50;72.00
68217;DHT22;55037;52.354;4.992;2022-12-18T16:19:44;1.60;71.90
68217;DHT22;55037;52.354;4.992;2022-12-18T16:22:23;1.60;71.70
68217;DHT22;55037;52.354;4.992;2022-12-18T16:24:51;1.60;71.60
68217;DHT22;55037;52.354;4.992;2022-12-18T16:27:20;1.60;71.80
68217;DHT22;55037;52.354;4.992;2022-12-18T16:29:47;1.70;71.90
68217;DHT22;55037;52.354;4.992;2022-12-18T16:32:19;1.70;71.60
68217;DHT22;55037;52.354;4.992;2022-12-18T16:34:47;1.70;71.50
68217;DHT22;55037;52.354;4.992;2022-12-18T16:37:15;1.70;71.20
68217;DHT22;55037;52.354;4.992;2022-12-18T16:39:43;1.60;71.10
68217;DHT22;55037;52.354;4.992;2022-12-18T16:42:14;1.70;71.50
68217;DHT22;55037;52.354;4.992;2022-12-18T16:44:43;1.60;71.60
68217;DHT22;55037;52.354;4.992;2022-12-18T16:47:11;1.60;71.30
68217;DHT22;55037;52.354;4.992;2022-12-18T16:49:42;1.60;71.50
68217;DHT22;55037;52.354;4.992;2022-12-18T16:52:12;1.70;71.60
68217;DHT22;55037;52.354;4.992;2022-12-18T16:54:40;1.70;71.20
68217;DHT22;55037;52.354;4.992;2022-12-18T16:57:10;1.60;71.30
68217;DHT22;55037;52.354;4.992;2022-12-18T16:59:38;1.60;71.30
68217;DHT22;55037;52.354;4.992;2022-12-18T17:02:18;1.60;71.00
68217;DHT22;55037;52.354;4.992;2022-12-18T17:04:53;1.70;71.40
68217;DHT22;55037;52.354;4.992;2022-12-18T17:07:21;1.70;71.10
68217;DHT22;55037;52.354;4.992;2022-12-18T17:09:48;1.70;71.00
68217;DHT22;55037;52.354;4.992;2022-12-18T17:12:17;1.60;71.20
68217;DHT22;55037;52.354;4.992;2022-12-18T17:14:44;1.70;71.10
68217;DHT22;55037;52.354;4.992;2022-12-18T17:17:11;1.70;71.20
68217;DHT22;55037;52.354;4.992;2022-12-18T17:19:49;1.70;71.30
68217;DHT22;55037;52.354;4.992;2022-12-18T17:22:17;1.70;71.30
68217;DHT22;55037;52.354;4.992;2022-12-18T17:24:45;1.70;72.10
68217;DHT22;55037;52.354;4.992;2022-12-18T17:27:13;1.80;71.30
68217;DHT22;55037;52.354;4.992;2022-12-18T17:29:40;1.70;71.20
68217;DHT22;55037;52.354;4.992;2022-12-18T17:32:15;1.70;71.30
68217;DHT22;55037;52.354;4.992;2022-12-18T17:34:42;1.80;71.50
68217;DHT22;55037;52.354;4.992;2022-12-18T17:37:09;1.80;71.60
68217;DHT22;55037;52.354;4.992;2022-12-18T17:39:37;1.80;71.30
68217;DHT22;55037;52.354;4.992;2022-12-18T17:42:04;1.80;71.60
68217;DHT22;55037;52.354;4.992;2022-12-18T17:44:35;1.80;71.60
68217;DHT22;55037;52.354;4.992;2022-12-18T17:47:02;1.90;71.70
68217;DHT22;55037;52.354;4.992;2022-12-18T17:49:30;1.90;72.00
68217;DHT22;55037;52.354;4.992;2022-12-18T17:51:57;1.90;71.70
68217;DHT22;55037;52.354;4.992;2022-12-18T17:54:24;1.90;72.00
68217;DHT22;55037;52.354;4.992;2022-12-18T17:56:52;1.90;72.00
68217;DHT22;55037;52.354;4.992;2022-12-18T17:59:19;2.00;73.10
68217;DHT22;55037;52.354;4.992;2022-12-18T18:01:46;1.90;72.10